• Join FlightAware (Why Join?)
  • Login
  • US Flag 
02:34AM EDT


 

Airport Tracker/Info


-or-


 

Live Flight TrackerFlight Track Log ✈ DAL6089 ✈ 03-May-2013 ✈ KSDF - KLGA

Flight Track Log - Related Links

Times and Time Zones

All times are in EDT time to prevent confusion due to time zone crossing. See the DAL6089 flight status page for this flight to view local times or setup timezone preferences in your user account.

Time Position Orientation Groundspeed Altitude Reporting Facility
EDT Latitude Longitude Course Direction KTS MPH feet Rate Location/Type
06:10AM 38.1500 -85.7167 99° East 159 183 1,900  Level Louisville TRACON
06:12AM 38.0867 -85.6817 156° South 279 321 4,800 2,340 Climbing Indianapolis Center
06:13AM 38.0667 -85.4039 90° East  Level FlightAware Approximate
06:13AM 38.0825 -85.5889 93° East 265 305 7,900  Level Indianapolis Center
06:14AM 38.0644 -85.2707 103° East  Level FlightAware Approximate
06:14AM 38.0778 -85.4936 94° East 270 311 10,500  Level Indianapolis Center
06:15AM 38.0407 -85.1405 103° East  Level FlightAware Approximate
06:15AM 38.0753 -85.3900 92° East 293 337 12,200  Level Indianapolis Center
06:16AM 38.0244 -85.0117 99° East  Level FlightAware Approximate
06:16AM 38.0672 -85.2533 94° East 321 369 14,600  Level Indianapolis Center
06:17AM 38.0522 -85.1514 101° East 333 383 16,300 1,680 Climbing Indianapolis Center
06:18AM 38.0367 -85.0344 100° East 335 386 18,000 1,980 Climbing Indianapolis Center
06:19AM 38.0231 -84.9142 98° East 343 395 20,400 2,220 Climbing Indianapolis Center
06:20AM 38.0078 -84.7953 99° East 341 392 22,500 2,220 Climbing Indianapolis Center
06:21AM 37.9908 -84.6578 99° East 339 390 24,900 2,160 Climbing Indianapolis Center
06:22AM 37.9756 -84.5392 99° East 341 392 27,000 1,980 Climbing Indianapolis Center
06:23AM 37.9642 -84.4222 97° East 336 387 28,900 1,740 Climbing Indianapolis Center
06:24AM 37.9592 -84.3056 93° East 332 382 30,600 1,680 Climbing Indianapolis Center
06:25AM 37.9542 -84.1844 93° East 339 390 32,400 1,620 Climbing Indianapolis Center
06:26AM 37.9492 -84.0642 93° East 342 394 33,900 1,260 Climbing Indianapolis Center
06:27AM 37.9436 -83.9411 93° East 347 399 35,000 1,080 Climbing Indianapolis Center
06:28AM 37.9381 -83.8111 93° East 367 422 36,100 960 Climbing Indianapolis Center
06:29AM 37.9322 -83.6797 93° East 372 428 37,000 420 Climbing Indianapolis Center
06:30AM 37.9247 -83.5433 94° East 380 437 37,000  Level Indianapolis Center
06:31AM 37.9183 -83.3931 93° East 420 483 37,000  Level Indianapolis Center
06:32AM 37.9094 -83.2386 94° East 437 503 37,000  Level Indianapolis Center
06:33AM 37.9017 -83.0844 94° East 438 504 37,000  Level Indianapolis Center
06:34AM 37.8928 -82.9308 94° East 436 502 37,000  Level Indianapolis Center
06:35AM 37.8853 -82.7811 94° East 428 493 37,000  Level Indianapolis Center
06:36AM 37.8767 -82.6317 94° East 425 489 37,000  Level Indianapolis Center
06:37AM 37.8681 -82.4831 94° East 422 486 37,000  Level Indianapolis Center
06:38AM 37.8603 -82.3364 94° East 416 479 37,000  Level Indianapolis Center
06:39AM 37.8517 -82.1889 94° East 418 481 37,000  Level Indianapolis Center
06:40AM 37.8419 -82.0331 94° East 420 483 37,000  Level Indianapolis Center
06:41AM 37.8322 -81.8925 95° East 423 487 37,000  Level Indianapolis Center
06:42AM 37.8225 -81.7431 95° East 425 489 37,000  Level Indianapolis Center
06:43AM 37.8119 -81.5911 95° East 431 496 37,000  Level Indianapolis Center
06:44AM 37.8036 -81.4378 94° East 425 489 37,000  Level Indianapolis Center
06:45AM 37.7947 -81.3578 98° East 425 489 37,000  Level Washington Center
06:46AM 37.7850 -81.2100 95° East 425 489 37,000  Level Washington Center
06:47AM 37.7817 -81.0600 92° East 425 489 37,000  Level Washington Center
06:48AM 37.7925 -80.9108 85° East 425 489 37,000  Level Washington Center
06:49AM 37.8058 -80.7461 84° East 420 483 37,000  Level Washington Center
06:50AM 37.8164 -80.5969 85° East 425 489 37,000  Level Washington Center
06:51AM 37.8247 -80.4450 86° East 425 489 37,000  Level Washington Center
06:52AM 37.8347 -80.2986 85° East 419 482 37,000  Level Washington Center
06:53AM 37.8447 -80.1492 85° East 419 482 37,000  Level Washington Center
06:54AM 37.8517 -80.0181 86° East 418 481 37,000  Level Washington Center
06:55AM 37.8614 -79.8636 85° East 418 481 37,000  Level Washington Center
06:56AM 37.8708 -79.7142 85° East 418 481 37,000  Level Washington Center
06:57AM 37.8803 -79.5647 85° East 418 481 37,000  Level Washington Center
06:58AM 37.8892 -79.4125 86° East 418 481 37,000  Level Washington Center
06:59AM 37.8983 -79.2603 86° East 418 481 37,000  Level Washington Center
07:00AM 37.9072 -79.0947 86° East 426 490 37,000  Level Washington Center
07:01AM 37.9242 -78.9431 82° East 426 490 37,000  Level Washington Center
07:02AM 37.9408 -78.7961 82° East 426 490 37,000  Level Washington Center
07:03AM 37.9614 -78.6469 80° East 426 490 37,000  Level Washington Center
07:04AM 37.9750 -78.5131 83° East 426 490 37,000  Level Washington Center
07:05AM 37.9931 -78.3636 81° East 426 490 37,000  Level Washington Center
07:06AM 38.0111 -78.2142 81° East 426 490 37,000  Level Washington Center
07:07AM 38.0183 -78.0772 86° East 426 490 37,000  Level Washington Center
07:08AM 38.0297 -77.9169 85° East 416 479 37,000  Level Washington Center
07:09AM 38.0367 -77.7694 87° East 416 479 37,000  Level Washington Center
07:10AM 38.0456 -77.6167 86° East 423 487 37,000  Level Washington Center
07:11AM 38.0564 -77.4667 85° East 423 487 37,000  Level Washington Center
07:12AM 38.0650 -77.3192 86° East 423 487 37,000  Level Washington Center
07:13AM 38.0900 -77.1536 79° East 423 487 37,000  Level Washington Center
07:14AM 38.1625 -77.0389 51° Northeast 402 463 37,000  Level Washington Center
07:15AM 38.2347 -76.9239 51° Northeast 402 463 37,000  Level Washington Center
07:16AM 38.2961 -76.8297 50° Northeast 415 478 37,000  Level Washington Center
07:17AM 38.3767 -76.6989 52° Northeast 415 478 37,000  Level Washington Center
07:18AM 38.4569 -76.5753 50° Northeast 427 491 37,000 -540 Level Washington Center
07:19AM 38.5331 -76.4517 52° Northeast 438 504 35,900 -1,620 Descending Washington Center
07:20AM 38.6089 -76.3275 52° Northeast 438 504 33,900 -2,040 Descending Washington Center
07:21AM 38.6844 -76.2061 51° Northeast 438 504 31,900 -1,980 Descending Washington Center
07:22AM 38.7664 -76.0789 50° Northeast 447 514 29,900 -1,980 Descending Washington Center
07:23AM 38.8419 -75.9542 52° Northeast 447 514 28,000 -1,560 Descending Washington Center
07:24AM 38.9214 -75.8292 51° Northeast 441 507 26,900 -540 Descending Washington Center
07:25AM 39.0133 -75.7253 41° Northeast 441 507 27,000 -420 Climbing Washington Center
07:26AM 39.1114 -75.6317 37° Northeast 436 502 26,100 -900 Descending Washington Center
07:27AM 39.2114 -75.5381 36° Northeast 436 502 25,200 -960 Descending Washington Center
07:28AM 39.3092 -75.4467 36° Northeast 436 502 24,200 -660 Descending Washington Center
07:29AM 39.4092 -75.3578 34° Northeast 436 502 24,000 -840 Descending Washington Center
07:30AM 39.5069 -75.2714 34° Northeast 431 496 22,600 -1,680 Descending Washington Center
07:31AM 39.5961 -75.1903 35° Northeast 413 475 20,600 -1,980 Descending Washington Center
07:32AM 39.6833 -75.1089 36° Northeast 364 419 18,600 -1,500 Descending Washington Center
07:33AM 39.7539 -75.0464 34° Northeast 316 364 17,600 -1,380 Descending Washington Center
07:34AM 39.8244 -74.9892 32° Northeast 291 335 15,900 -1,500 Descending Washington Center
07:35AM 39.8889 -74.9289 36° Northeast 291 335 14,700 -1,320 Descending Washington Center
07:36AM 39.9508 -74.8608 40° Northeast 291 335 13,300 -1,320 Descending Washington Center
07:37AM 40.0003 -74.7872 49° Northeast 273 314 12,100 -1,140 Descending Washington Center
07:38AM 40.0500 -74.7189 46° Northeast 260 299 11,100 -1,080 Descending Washington Center
07:39AM 40.0972 -74.6478 49° Northeast 260 299 10,000 -600 Descending Washington Center
07:40AM 40.1447 -74.5792 48° Northeast 255 293 10,000  Level Washington Center
07:41AM 40.2000 -74.5000 48° Northeast 198 228 10,000  Level New York TRACON
07:42AM 40.2000 -74.4333 90° East 232 267 10,000 -420 Level New York TRACON
07:43AM 40.1500 -74.4667 207° Southwest 259 298 9,300 -540 Descending New York TRACON
07:44AM 40.1167 -74.5333 237° Southwest 248 285 9,000 -180 Descending New York TRACON
07:45AM 40.1500 -74.5833 311° West 255 293 9,000 -480 Level New York TRACON
07:46AM 40.1833 -74.5333 49° Northeast 206 237 8,100 -540 Descending New York TRACON
07:47AM 40.2167 -74.4667 57° Northeast 208 239 8,000 -300 Descending New York TRACON
07:48AM 40.2667 -74.4167 37° Northeast 210 242 7,600 -540 Descending New York TRACON
07:49AM 40.3167 -74.3667 37° Northeast 210 242 7,000 -300 Descending New York TRACON
07:50AM 40.3500 -74.3167 49° Northeast 210 242 7,000  Level New York TRACON
07:51AM 40.4000 -74.2667 37° Northeast 208 239 7,000  Level New York TRACON
07:52AM 40.4333 -74.2167 49° Northeast 207 238 7,000 -120 Level New York TRACON
07:53AM 40.4833 -74.1833 27° Northeast 207 238 6,800 -900 Descending New York TRACON
07:54AM 40.5167 -74.1333 49° Northeast 206 237 5,300 -1,380 Descending New York TRACON
07:55AM 40.5500 -74.0833 49° Northeast 195 224 4,200 -1,200 Descending New York TRACON
07:56AM 40.6000 -74.0500 27° Northeast 187 215 3,100 -780 Descending New York TRACON
07:57AM 40.6333 -74.0000 49° Northeast 207 238 2,700 -420 Descending New York TRACON